sensor_id;sensor_type;location;lat;lon;timestamp;P1;durP1;ratioP1;P2;durP2;ratioP2
10872;SDS011;34586;53.616;10.032;2022-12-07T00:01:33;14.17;;;11.87;;
10872;SDS011;34586;53.616;10.032;2022-12-07T00:04:00;15.67;;;12.73;;
10872;SDS011;34586;53.616;10.032;2022-12-07T00:06:34;14.73;;;12.83;;
10872;SDS011;34586;53.616;10.032;2022-12-07T00:09:02;14.23;;;12.30;;
10872;SDS011;34586;53.616;10.032;2022-12-07T00:11:28;14.63;;;13.00;;
10872;SDS011;34586;53.616;10.032;2022-12-07T00:13:55;14.60;;;12.97;;
10872;SDS011;34586;53.616;10.032;2022-12-07T00:16:24;15.77;;;14.07;;
10872;SDS011;34586;53.616;10.032;2022-12-07T00:18:51;15.87;;;14.10;;
10872;SDS011;34586;53.616;10.032;2022-12-07T00:21:18;16.90;;;13.90;;
10872;SDS011;34586;53.616;10.032;2022-12-07T00:23:46;17.93;;;13.70;;
10872;SDS011;34586;53.616;10.032;2022-12-07T00:26:21;18.40;;;14.50;;
10872;SDS011;34586;53.616;10.032;2022-12-07T00:28:49;18.97;;;14.70;;
10872;SDS011;34586;53.616;10.032;2022-12-07T00:31:24;15.70;;;13.43;;
10872;SDS011;34586;53.616;10.032;2022-12-07T00:33:51;19.40;;;15.77;;
10872;SDS011;34586;53.616;10.032;2022-12-07T00:36:18;16.43;;;14.30;;
10872;SDS011;34586;53.616;10.032;2022-12-07T00:38:46;17.67;;;14.10;;
10872;SDS011;34586;53.616;10.032;2022-12-07T00:43:39;14.57;;;12.97;;
10872;SDS011;34586;53.616;10.032;2022-12-07T00:46:05;15.47;;;13.03;;
10872;SDS011;34586;53.616;10.032;2022-12-07T00:48:31;15.23;;;13.13;;
10872;SDS011;34586;53.616;10.032;2022-12-07T00:50:57;17.00;;;13.23;;
10872;SDS011;34586;53.616;10.032;2022-12-07T00:53:23;16.17;;;12.67;;
10872;SDS011;34586;53.616;10.032;2022-12-07T00:55:49;15.53;;;11.80;;
10872;SDS011;34586;53.616;10.032;2022-12-07T00:58:15;13.20;;;11.27;;
10872;SDS011;34586;53.616;10.032;2022-12-07T01:00:41;13.17;;;11.77;;
10872;SDS011;34586;53.616;10.032;2022-12-07T01:03:08;13.97;;;11.73;;
10872;SDS011;34586;53.616;10.032;2022-12-07T01:05:36;14.50;;;12.37;;
10872;SDS011;34586;53.616;10.032;2022-12-07T01:08:02;14.60;;;11.70;;
10872;SDS011;34586;53.616;10.032;2022-12-07T01:10:28;13.37;;;10.33;;
10872;SDS011;34586;53.616;10.032;2022-12-07T01:12:55;13.70;;;10.17;;
10872;SDS011;34586;53.616;10.032;2022-12-07T01:15:21;12.47;;;9.47;;
10872;SDS011;34586;53.616;10.032;2022-12-07T01:17:47;14.37;;;10.53;;
10872;SDS011;34586;53.616;10.032;2022-12-07T01:20:13;13.00;;;9.60;;
10872;SDS011;34586;53.616;10.032;2022-12-07T01:22:40;12.13;;;9.63;;
10872;SDS011;34586;53.616;10.032;2022-12-07T01:25:07;15.00;;;9.90;;
10872;SDS011;34586;53.616;10.032;2022-12-07T01:27:34;10.60;;;9.10;;
10872;SDS011;34586;53.616;10.032;2022-12-07T01:30:00;13.37;;;8.87;;
10872;SDS011;34586;53.616;10.032;2022-12-07T01:32:27;15.10;;;9.23;;
10872;SDS011;34586;53.616;10.032;2022-12-07T01:34:52;10.03;;;8.43;;
10872;SDS011;34586;53.616;10.032;2022-12-07T01:37:18;12.03;;;8.93;;
10872;SDS011;34586;53.616;10.032;2022-12-07T01:39:44;11.83;;;9.17;;
10872;SDS011;34586;53.616;10.032;2022-12-07T01:42:12;10.87;;;8.40;;
10872;SDS011;34586;53.616;10.032;2022-12-07T01:47:42;11.23;;;8.40;;
10872;SDS011;34586;53.616;10.032;2022-12-07T01:50:11;10.73;;;8.37;;
10872;SDS011;34586;53.616;10.032;2022-12-07T01:52:36;10.73;;;8.60;;
10872;SDS011;34586;53.616;10.032;2022-12-07T01:55:05;12.97;;;8.50;;
10872;SDS011;34586;53.616;10.032;2022-12-07T01:57:33;12.27;;;8.70;;
10872;SDS011;34586;53.616;10.032;2022-12-07T02:00:02;10.47;;;9.13;;
10872;SDS011;34586;53.616;10.032;2022-12-07T02:02:30;11.07;;;8.80;;
10872;SDS011;34586;53.616;10.032;2022-12-07T02:05:03;13.13;;;8.77;;
10872;SDS011;34586;53.616;10.032;2022-12-07T02:07:30;10.07;;;8.13;;
10872;SDS011;34586;53.616;10.032;2022-12-07T02:09:57;13.10;;;9.40;;
10872;SDS011;34586;53.616;10.032;2022-12-07T02:12:36;12.40;;;9.43;;
10872;SDS011;34586;53.616;10.032;2022-12-07T02:15:02;14.30;;;9.10;;
10872;SDS011;34586;53.616;10.032;2022-12-07T02:17:32;13.43;;;8.63;;
10872;SDS011;34586;53.616;10.032;2022-12-07T02:23:16;13.50;;;8.07;;
10872;SDS011;34586;53.616;10.032;2022-12-07T02:26:02;12.63;;;8.03;;
10872;SDS011;34586;53.616;10.032;2022-12-07T02:28:34;15.17;;;8.23;;
10872;SDS011;34586;53.616;10.032;2022-12-07T02:31:06;10.37;;;7.00;;
10872;SDS011;34586;53.616;10.032;2022-12-07T02:33:57;10.53;;;7.50;;
10872;SDS011;34586;53.616;10.032;2022-12-07T02:36:40;10.53;;;5.90;;
10872;SDS011;34586;53.616;10.032;2022-12-07T02:39:15;8.80;;;6.37;;
10872;SDS011;34586;53.616;10.032;2022-12-07T02:41:52;8.00;;;6.37;;
10872;SDS011;34586;53.616;10.032;2022-12-07T02:44:27;12.50;;;6.20;;
10872;SDS011;34586;53.616;10.032;2022-12-07T02:47:14;8.33;;;5.53;;
10872;SDS011;34586;53.616;10.032;2022-12-07T02:49:40;7.30;;;5.17;;
10872;SDS011;34586;53.616;10.032;2022-12-07T02:52:06;8.83;;;5.00;;
10872;SDS011;34586;53.616;10.032;2022-12-07T02:54:32;7.80;;;5.20;;
10872;SDS011;34586;53.616;10.032;2022-12-07T02:57:05;9.33;;;4.97;;
10872;SDS011;34586;53.616;10.032;2022-12-07T03:07:11;5.30;;;4.00;;
10872;SDS011;34586;53.616;10.032;2022-12-07T03:09:43;6.03;;;4.10;;
10872;SDS011;34586;53.616;10.032;2022-12-07T03:12:30;7.13;;;3.80;;
10872;SDS011;34586;53.616;10.032;2022-12-07T03:15:05;5.90;;;3.50;;
10872;SDS011;34586;53.616;10.032;2022-12-07T03:17:39;3.77;;;3.47;;
10872;SDS011;34586;53.616;10.032;2022-12-07T03:20:08;4.50;;;3.13;;
10872;SDS011;34586;53.616;10.032;2022-12-07T03:22:36;5.23;;;3.70;;
10872;SDS011;34586;53.616;10.032;2022-12-07T03:25:06;6.60;;;3.03;;
10872;SDS011;34586;53.616;10.032;2022-12-07T03:30:18;3.97;;;2.40;;
10872;SDS011;34586;53.616;10.032;2022-12-07T03:32:54;4.43;;;2.47;;
10872;SDS011;34586;53.616;10.032;2022-12-07T03:35:32;2.00;;;1.80;;
10872;SDS011;34586;53.616;10.032;2022-12-07T03:38:10;4.67;;;2.20;;
10872;SDS011;34586;53.616;10.032;2022-12-07T03:41:08;3.83;;;1.60;;
10872;SDS011;34586;53.616;10.032;2022-12-07T03:43:50;3.63;;;1.77;;
10872;SDS011;34586;53.616;10.032;2022-12-07T03:49:08;1.57;;;1.40;;
10872;SDS011;34586;53.616;10.032;2022-12-07T03:51:53;2.30;;;1.33;;
10872;SDS011;34586;53.616;10.032;2022-12-07T03:57:12;5.57;;;1.50;;
10872;SDS011;34586;53.616;10.032;2022-12-07T03:59:38;2.70;;;1.50;;
10872;SDS011;34586;53.616;10.032;2022-12-07T04:02:05;4.53;;;1.30;;
10872;SDS011;34586;53.616;10.032;2022-12-07T04:04:32;3.43;;;1.40;;
10872;SDS011;34586;53.616;10.032;2022-12-07T04:06:59;3.13;;;1.90;;
10872;SDS011;34586;53.616;10.032;2022-12-07T04:09:25;2.83;;;1.90;;
10872;SDS011;34586;53.616;10.032;2022-12-07T04:11:51;4.07;;;1.37;;
10872;SDS011;34586;53.616;10.032;2022-12-07T04:14:16;4.87;;;1.30;;
10872;SDS011;34586;53.616;10.032;2022-12-07T04:19:11;3.10;;;1.80;;
10872;SDS011;34586;53.616;10.032;2022-12-07T04:21:37;4.80;;;1.90;;
10872;SDS011;34586;53.616;10.032;2022-12-07T04:24:05;2.70;;;1.80;;
10872;SDS011;34586;53.616;10.032;2022-12-07T04:26:31;5.43;;;1.70;;
10872;SDS011;34586;53.616;10.032;2022-12-07T04:28:57;5.17;;;1.80;;
10872;SDS011;34586;53.616;10.032;2022-12-07T04:31:22;2.87;;;2.07;;
10872;SDS011;34586;53.616;10.032;2022-12-07T04:33:48;3.40;;;1.73;;
10872;SDS011;34586;53.616;10.032;2022-12-07T04:36:13;3.40;;;1.90;;
10872;SDS011;34586;53.616;10.032;2022-12-07T04:38:39;3.53;;;2.30;;
10872;SDS011;34586;53.616;10.032;2022-12-07T04:41:08;4.33;;;2.23;;
10872;SDS011;34586;53.616;10.032;2022-12-07T04:43:34;5.70;;;2.37;;
10872;SDS011;34586;53.616;10.032;2022-12-07T04:46:01;5.57;;;2.40;;
10872;SDS011;34586;53.616;10.032;2022-12-07T04:48:27;5.00;;;2.17;;
10872;SDS011;34586;53.616;10.032;2022-12-07T04:50:53;2.47;;;2.00;;
10872;SDS011;34586;53.616;10.032;2022-12-07T04:53:18;6.30;;;2.37;;
10872;SDS011;34586;53.616;10.032;2022-12-07T04:55:44;3.10;;;1.93;;
10872;SDS011;34586;53.616;10.032;2022-12-07T04:58:10;2.90;;;2.37;;
10872;SDS011;34586;53.616;10.032;2022-12-07T05:00:37;4.93;;;2.30;;
10872;SDS011;34586;53.616;10.032;2022-12-07T05:03:03;5.07;;;2.27;;
10872;SDS011;34586;53.616;10.032;2022-12-07T05:05:28;3.60;;;2.80;;
10872;SDS011;34586;53.616;10.032;2022-12-07T05:07:54;3.37;;;2.53;;
10872;SDS011;34586;53.616;10.032;2022-12-07T05:10:19;3.47;;;2.67;;
10872;SDS011;34586;53.616;10.032;2022-12-07T05:12:45;4.40;;;3.07;;
10872;SDS011;34586;53.616;10.032;2022-12-07T05:15:11;3.60;;;2.87;;
10872;SDS011;34586;53.616;10.032;2022-12-07T05:17:38;5.53;;;3.07;;
10872;SDS011;34586;53.616;10.032;2022-12-07T05:20:03;3.80;;;3.00;;
10872;SDS011;34586;53.616;10.032;2022-12-07T05:22:30;6.07;;;3.17;;
10872;SDS011;34586;53.616;10.032;2022-12-07T05:24:55;2.90;;;2.63;;
10872;SDS011;34586;53.616;10.032;2022-12-07T05:27:21;4.40;;;3.27;;
10872;SDS011;34586;53.616;10.032;2022-12-07T05:29:47;5.33;;;3.13;;
10872;SDS011;34586;53.616;10.032;2022-12-07T05:32:14;8.97;;;4.17;;
10872;SDS011;34586;53.616;10.032;2022-12-07T05:34:40;7.03;;;3.23;;
10872;SDS011;34586;53.616;10.032;2022-12-07T05:37:05;3.33;;;2.73;;
10872;SDS011;34586;53.616;10.032;2022-12-07T05:39:31;4.50;;;2.93;;
10872;SDS011;34586;53.616;10.032;2022-12-07T05:41:57;4.50;;;3.20;;
10872;SDS011;34586;53.616;10.032;2022-12-07T05:44:38;6.20;;;4.43;;
10872;SDS011;34586;53.616;10.032;2022-12-07T05:47:11;4.70;;;3.43;;
10872;SDS011;34586;53.616;10.032;2022-12-07T05:49:37;5.00;;;3.23;;
10872;SDS011;34586;53.616;10.032;2022-12-07T05:52:03;4.13;;;3.10;;
10872;SDS011;34586;53.616;10.032;2022-12-07T05:54:29;4.83;;;2.90;;
10872;SDS011;34586;53.616;10.032;2022-12-07T05:56:55;5.13;;;2.93;;
10872;SDS011;34586;53.616;10.032;2022-12-07T05:59:20;4.47;;;2.77;;
10872;SDS011;34586;53.616;10.032;2022-12-07T06:01:53;5.43;;;3.33;;
10872;SDS011;34586;53.616;10.032;2022-12-07T06:04:31;4.17;;;3.03;;
10872;SDS011;34586;53.616;10.032;2022-12-07T06:06:58;3.30;;;2.90;;
10872;SDS011;34586;53.616;10.032;2022-12-07T06:09:24;4.53;;;3.03;;
10872;SDS011;34586;53.616;10.032;2022-12-07T06:11:51;5.40;;;3.03;;
10872;SDS011;34586;53.616;10.032;2022-12-07T06:14:35;5.33;;;3.00;;
10872;SDS011;34586;53.616;10.032;2022-12-07T06:17:01;4.37;;;3.07;;
10872;SDS011;34586;53.616;10.032;2022-12-07T06:19:27;5.27;;;3.23;;
10872;SDS011;34586;53.616;10.032;2022-12-07T06:21:52;5.10;;;3.50;;
10872;SDS011;34586;53.616;10.032;2022-12-07T06:24:19;4.77;;;3.13;;
10872;SDS011;34586;53.616;10.032;2022-12-07T06:26:45;5.17;;;3.40;;
10872;SDS011;34586;53.616;10.032;2022-12-07T06:29:11;4.73;;;3.23;;
10872;SDS011;34586;53.616;10.032;2022-12-07T06:31:37;5.67;;;3.10;;
10872;SDS011;34586;53.616;10.032;2022-12-07T06:34:04;8.33;;;3.33;;
10872;SDS011;34586;53.616;10.032;2022-12-07T06:36:40;4.90;;;3.20;;
10872;SDS011;34586;53.616;10.032;2022-12-07T06:39:06;5.87;;;3.53;;
10872;SDS011;34586;53.616;10.032;2022-12-07T06:41:34;5.13;;;3.20;;
10872;SDS011;34586;53.616;10.032;2022-12-07T06:44:00;3.77;;;3.00;;
10872;SDS011;34586;53.616;10.032;2022-12-07T06:46:26;4.23;;;3.10;;
10872;SDS011;34586;53.616;10.032;2022-12-07T06:48:51;6.23;;;3.10;;
10872;SDS011;34586;53.616;10.032;2022-12-07T06:51:17;4.17;;;3.10;;
10872;SDS011;34586;53.616;10.032;2022-12-07T06:53:43;5.43;;;2.53;;
10872;SDS011;34586;53.616;10.032;2022-12-07T06:56:08;3.57;;;2.80;;
10872;SDS011;34586;53.616;10.032;2022-12-07T06:58:34;3.37;;;2.20;;
10872;SDS011;34586;53.616;10.032;2022-12-07T07:00:59;2.60;;;2.40;;
10872;SDS011;34586;53.616;10.032;2022-12-07T07:03:25;3.73;;;2.70;;
10872;SDS011;34586;53.616;10.032;2022-12-07T07:05:51;6.70;;;2.80;;
10872;SDS011;34586;53.616;10.032;2022-12-07T07:08:16;3.63;;;2.37;;
10872;SDS011;34586;53.616;10.032;2022-12-07T07:10:42;4.27;;;2.40;;
10872;SDS011;34586;53.616;10.032;2022-12-07T07:13:08;5.37;;;2.30;;
10872;SDS011;34586;53.616;10.032;2022-12-07T07:15:34;5.97;;;2.40;;
10872;SDS011;34586;53.616;10.032;2022-12-07T07:18:00;5.73;;;1.97;;
10872;SDS011;34586;53.616;10.032;2022-12-07T07:20:26;5.87;;;2.00;;
10872;SDS011;34586;53.616;10.032;2022-12-07T07:22:55;5.17;;;2.13;;
10872;SDS011;34586;53.616;10.032;2022-12-07T07:25:21;7.93;;;2.43;;
10872;SDS011;34586;53.616;10.032;2022-12-07T07:27:47;2.70;;;2.20;;
10872;SDS011;34586;53.616;10.032;2022-12-07T07:30:12;3.67;;;1.60;;
10872;SDS011;34586;53.616;10.032;2022-12-07T07:32:38;6.07;;;1.63;;
10872;SDS011;34586;53.616;10.032;2022-12-07T07:35:04;5.13;;;1.60;;
10872;SDS011;34586;53.616;10.032;2022-12-07T07:37:30;3.10;;;1.30;;
10872;SDS011;34586;53.616;10.032;2022-12-07T07:39:55;6.20;;;1.50;;
10872;SDS011;34586;53.616;10.032;2022-12-07T07:42:21;4.37;;;1.40;;
10872;SDS011;34586;53.616;10.032;2022-12-07T07:44:47;4.03;;;1.20;;
10872;SDS011;34586;53.616;10.032;2022-12-07T07:47:12;3.97;;;1.43;;
10872;SDS011;34586;53.616;10.032;2022-12-07T07:49:38;6.30;;;1.60;;
10872;SDS011;34586;53.616;10.032;2022-12-07T07:52:04;5.47;;;1.40;;
10872;SDS011;34586;53.616;10.032;2022-12-07T07:54:31;1.97;;;1.23;;
10872;SDS011;34586;53.616;10.032;2022-12-07T07:56:57;3.63;;;1.47;;
10872;SDS011;34586;53.616;10.032;2022-12-07T07:59:22;3.80;;;1.60;;
10872;SDS011;34586;53.616;10.032;2022-12-07T08:01:48;4.13;;;1.20;;
10872;SDS011;34586;53.616;10.032;2022-12-07T08:04:14;6.40;;;1.50;;
10872;SDS011;34586;53.616;10.032;2022-12-07T08:06:39;4.93;;;1.33;;
10872;SDS011;34586;53.616;10.032;2022-12-07T08:09:07;4.80;;;1.10;;
10872;SDS011;34586;53.616;10.032;2022-12-07T08:11:33;4.57;;;1.13;;
10872;SDS011;34586;53.616;10.032;2022-12-07T08:13:59;1.23;;;0.97;;
10872;SDS011;34586;53.616;10.032;2022-12-07T08:16:24;7.17;;;1.67;;
10872;SDS011;34586;53.616;10.032;2022-12-07T08:18:50;3.13;;;1.30;;
10872;SDS011;34586;53.616;10.032;2022-12-07T08:21:15;1.67;;;1.03;;
10872;SDS011;34586;53.616;10.032;2022-12-07T08:23:41;2.77;;;0.93;;
10872;SDS011;34586;53.616;10.032;2022-12-07T08:26:08;4.53;;;1.10;;
10872;SDS011;34586;53.616;10.032;2022-12-07T08:28:36;4.53;;;1.20;;
10872;SDS011;34586;53.616;10.032;2022-12-07T08:31:03;3.00;;;1.10;;
10872;SDS011;34586;53.616;10.032;2022-12-07T08:33:30;3.60;;;1.20;;
10872;SDS011;34586;53.616;10.032;2022-12-07T08:36:03;4.63;;;1.47;;
10872;SDS011;34586;53.616;10.032;2022-12-07T08:38:31;3.13;;;1.07;;
10872;SDS011;34586;53.616;10.032;2022-12-07T08:40:57;3.77;;;1.00;;
10872;SDS011;34586;53.616;10.032;2022-12-07T08:43:23;2.50;;;1.30;;
10872;SDS011;34586;53.616;10.032;2022-12-07T08:45:51;5.57;;;1.20;;
10872;SDS011;34586;53.616;10.032;2022-12-07T08:48:29;7.40;;;0.97;;
10872;SDS011;34586;53.616;10.032;2022-12-07T08:50:55;7.43;;;1.40;;
10872;SDS011;34586;53.616;10.032;2022-12-07T08:53:22;7.57;;;2.40;;
10872;SDS011;34586;53.616;10.032;2022-12-07T08:55:48;7.03;;;1.80;;
10872;SDS011;34586;53.616;10.032;2022-12-07T08:58:14;6.63;;;1.20;;
10872;SDS011;34586;53.616;10.032;2022-12-07T09:00:40;7.53;;;1.60;;
10872;SDS011;34586;53.616;10.032;2022-12-07T09:03:05;6.47;;;1.30;;
10872;SDS011;34586;53.616;10.032;2022-12-07T09:05:32;4.97;;;1.30;;
10872;SDS011;34586;53.616;10.032;2022-12-07T09:07:59;3.97;;;1.10;;
10872;SDS011;34586;53.616;10.032;2022-12-07T09:10:26;3.03;;;1.83;;
10872;SDS011;34586;53.616;10.032;2022-12-07T09:12:53;4.53;;;1.30;;
10872;SDS011;34586;53.616;10.032;2022-12-07T09:15:18;9.13;;;2.00;;
10872;SDS011;34586;53.616;10.032;2022-12-07T09:17:44;6.40;;;1.87;;
10872;SDS011;34586;53.616;10.032;2022-12-07T09:20:10;4.50;;;1.80;;
10872;SDS011;34586;53.616;10.032;2022-12-07T09:22:36;4.93;;;1.20;;
10872;SDS011;34586;53.616;10.032;2022-12-07T09:25:02;6.23;;;1.47;;
10872;SDS011;34586;53.616;10.032;2022-12-07T09:27:28;3.83;;;1.53;;
10872;SDS011;34586;53.616;10.032;2022-12-07T09:29:54;9.23;;;2.20;;
10872;SDS011;34586;53.616;10.032;2022-12-07T09:32:19;5.97;;;1.50;;
10872;SDS011;34586;53.616;10.032;2022-12-07T09:34:45;4.60;;;1.70;;
10872;SDS011;34586;53.616;10.032;2022-12-07T09:37:11;7.83;;;1.03;;
10872;SDS011;34586;53.616;10.032;2022-12-07T09:39:39;6.53;;;1.57;;
10872;SDS011;34586;53.616;10.032;2022-12-07T09:42:06;7.80;;;1.97;;
10872;SDS011;34586;53.616;10.032;2022-12-07T09:44:33;8.37;;;1.60;;
10872;SDS011;34586;53.616;10.032;2022-12-07T09:46:59;6.30;;;2.00;;
10872;SDS011;34586;53.616;10.032;2022-12-07T09:49:27;4.77;;;1.27;;
10872;SDS011;34586;53.616;10.032;2022-12-07T09:51:59;5.70;;;1.60;;
10872;SDS011;34586;53.616;10.032;2022-12-07T09:54:46;10.93;;;1.77;;
10872;SDS011;34586;53.616;10.032;2022-12-07T09:57:14;10.73;;;1.43;;
10872;SDS011;34586;53.616;10.032;2022-12-07T09:59:40;6.33;;;1.50;;
10872;SDS011;34586;53.616;10.032;2022-12-07T10:05:03;9.80;;;1.60;;
10872;SDS011;34586;53.616;10.032;2022-12-07T10:07:30;5.87;;;1.60;;
10872;SDS011;34586;53.616;10.032;2022-12-07T10:09:55;5.27;;;1.60;;
10872;SDS011;34586;53.616;10.032;2022-12-07T10:12:21;5.83;;;1.20;;
10872;SDS011;34586;53.616;10.032;2022-12-07T10:14:55;7.83;;;1.20;;
10872;SDS011;34586;53.616;10.032;2022-12-07T10:22:55;5.93;;;1.27;;
10872;SDS011;34586;53.616;10.032;2022-12-07T10:25:24;5.87;;;1.20;;
10872;SDS011;34586;53.616;10.032;2022-12-07T10:35:58;5.87;;;1.30;;
10872;SDS011;34586;53.616;10.032;2022-12-07T10:38:26;2.37;;;1.00;;
10872;SDS011;34586;53.616;10.032;2022-12-07T10:41:05;3.57;;;0.80;;
10872;SDS011;34586;53.616;10.032;2022-12-07T10:43:32;6.93;;;1.50;;
10872;SDS011;34586;53.616;10.032;2022-12-07T10:46:06;5.30;;;1.00;;
10872;SDS011;34586;53.616;10.032;2022-12-07T10:48:38;5.30;;;0.93;;
10872;SDS011;34586;53.616;10.032;2022-12-07T10:54:22;2.87;;;0.87;;
10872;SDS011;34586;53.616;10.032;2022-12-07T10:57:01;10.77;;;1.70;;
10872;SDS011;34586;53.616;10.032;2022-12-07T10:59:53;3.13;;;0.77;;
10872;SDS011;34586;53.616;10.032;2022-12-07T11:07:57;5.37;;;0.70;;
10872;SDS011;34586;53.616;10.032;2022-12-07T11:11:30;4.80;;;0.90;;
10872;SDS011;34586;53.616;10.032;2022-12-07T11:19:28;3.83;;;0.93;;
10872;SDS011;34586;53.616;10.032;2022-12-07T11:28:06;3.57;;;1.10;;
10872;SDS011;34586;53.616;10.032;2022-12-07T11:35:46;5.97;;;1.20;;
10872;SDS011;34586;53.616;10.032;2022-12-07T11:39:10;5.20;;;1.03;;
10872;SDS011;34586;53.616;10.032;2022-12-07T11:41:39;4.33;;;0.87;;
10872;SDS011;34586;53.616;10.032;2022-12-07T11:44:08;4.70;;;1.20;;
10872;SDS011;34586;53.616;10.032;2022-12-07T11:47:08;7.33;;;0.90;;
10872;SDS011;34586;53.616;10.032;2022-12-07T11:49:41;5.20;;;1.03;;
10872;SDS011;34586;53.616;10.032;2022-12-07T11:52:39;7.20;;;1.03;;
10872;SDS011;34586;53.616;10.032;2022-12-07T11:55:24;4.80;;;0.90;;
10872;SDS011;34586;53.616;10.032;2022-12-07T12:03:40;8.23;;;1.23;;
10872;SDS011;34586;53.616;10.032;2022-12-07T12:06:11;3.70;;;1.20;;
10872;SDS011;34586;53.616;10.032;2022-12-07T12:08:39;5.40;;;1.17;;
10872;SDS011;34586;53.616;10.032;2022-12-07T12:22:34;6.20;;;1.77;;
10872;SDS011;34586;53.616;10.032;2022-12-07T12:25:07;8.60;;;1.33;;
10872;SDS011;34586;53.616;10.032;2022-12-07T12:27:46;3.20;;;0.87;;
10872;SDS011;34586;53.616;10.032;2022-12-07T12:32:52;8.07;;;1.30;;
10872;SDS011;34586;53.616;10.032;2022-12-07T12:35:30;5.23;;;1.10;;
10872;SDS011;34586;53.616;10.032;2022-12-07T12:41:01;6.83;;;1.30;;
10872;SDS011;34586;53.616;10.032;2022-12-07T12:46:53;9.20;;;1.50;;
10872;SDS011;34586;53.616;10.032;2022-12-07T12:49:36;5.87;;;1.33;;
10872;SDS011;34586;53.616;10.032;2022-12-07T12:54:24;7.97;;;1.37;;
10872;SDS011;34586;53.616;10.032;2022-12-07T12:57:24;9.57;;;1.30;;
10872;SDS011;34586;53.616;10.032;2022-12-07T13:12:58;7.50;;;1.30;;
10872;SDS011;34586;53.616;10.032;2022-12-07T13:15:40;6.70;;;1.57;;
10872;SDS011;34586;53.616;10.032;2022-12-07T13:18:35;4.27;;;0.90;;
10872;SDS011;34586;53.616;10.032;2022-12-07T13:34:27;4.20;;;0.60;;
10872;SDS011;34586;53.616;10.032;2022-12-07T13:37:02;6.53;;;0.90;;
10872;SDS011;34586;53.616;10.032;2022-12-07T13:39:36;6.00;;;0.77;;
10872;SDS011;34586;53.616;10.032;2022-12-07T13:42:22;7.80;;;1.40;;
10872;SDS011;34586;53.616;10.032;2022-12-07T13:44:54;2.13;;;0.70;;
10872;SDS011;34586;53.616;10.032;2022-12-07T13:49:56;2.77;;;1.17;;
10872;SDS011;34586;53.616;10.032;2022-12-07T13:52:25;3.00;;;1.00;;
10872;SDS011;34586;53.616;10.032;2022-12-07T13:57:30;4.23;;;0.83;;
10872;SDS011;34586;53.616;10.032;2022-12-07T13:59:58;3.97;;;0.80;;
10872;SDS011;34586;53.616;10.032;2022-12-07T14:02:26;4.13;;;0.90;;
10872;SDS011;34586;53.616;10.032;2022-12-07T14:05:09;3.77;;;1.00;;
10872;SDS011;34586;53.616;10.032;2022-12-07T14:10:31;4.00;;;0.90;;
10872;SDS011;34586;53.616;10.032;2022-12-07T14:12:57;2.50;;;1.07;;
10872;SDS011;34586;53.616;10.032;2022-12-07T14:15:27;3.23;;;0.60;;
10872;SDS011;34586;53.616;10.032;2022-12-07T14:17:55;1.57;;;0.50;;
10872;SDS011;34586;53.616;10.032;2022-12-07T14:22:56;2.47;;;0.43;;
10872;SDS011;34586;53.616;10.032;2022-12-07T14:25:23;1.93;;;0.70;;
10872;SDS011;34586;53.616;10.032;2022-12-07T14:27:57;2.93;;;0.60;;
10872;SDS011;34586;53.616;10.032;2022-12-07T14:30:30;3.97;;;0.90;;
10872;SDS011;34586;53.616;10.032;2022-12-07T14:33:01;4.63;;;0.90;;
10872;SDS011;34586;53.616;10.032;2022-12-07T14:35:29;2.17;;;0.50;;
10872;SDS011;34586;53.616;10.032;2022-12-07T14:37:56;4.27;;;1.03;;
10872;SDS011;34586;53.616;10.032;2022-12-07T14:40:23;5.17;;;0.70;;
10872;SDS011;34586;53.616;10.032;2022-12-07T14:42:53;5.70;;;0.83;;
10872;SDS011;34586;53.616;10.032;2022-12-07T14:45:22;4.10;;;0.90;;
10872;SDS011;34586;53.616;10.032;2022-12-07T14:47:48;5.77;;;0.97;;
10872;SDS011;34586;53.616;10.032;2022-12-07T14:50:15;4.17;;;0.80;;
10872;SDS011;34586;53.616;10.032;2022-12-07T14:52:43;1.93;;;0.70;;
10872;SDS011;34586;53.616;10.032;2022-12-07T14:55:34;3.13;;;0.70;;
10872;SDS011;34586;53.616;10.032;2022-12-07T14:57:59;4.80;;;0.70;;
10872;SDS011;34586;53.616;10.032;2022-12-07T15:00:26;5.10;;;0.70;;
10872;SDS011;34586;53.616;10.032;2022-12-07T15:02:52;3.00;;;0.80;;
10872;SDS011;34586;53.616;10.032;2022-12-07T15:05:19;3.73;;;1.10;;
10872;SDS011;34586;53.616;10.032;2022-12-07T15:07:45;3.37;;;0.50;;
10872;SDS011;34586;53.616;10.032;2022-12-07T15:10:19;4.27;;;0.90;;
10872;SDS011;34586;53.616;10.032;2022-12-07T15:12:54;6.13;;;1.57;;
10872;SDS011;34586;53.616;10.032;2022-12-07T15:15:40;4.40;;;1.13;;
10872;SDS011;34586;53.616;10.032;2022-12-07T15:18:06;6.70;;;1.10;;
10872;SDS011;34586;53.616;10.032;2022-12-07T15:20:32;6.40;;;1.10;;
10872;SDS011;34586;53.616;10.032;2022-12-07T15:22:58;4.23;;;1.03;;
10872;SDS011;34586;53.616;10.032;2022-12-07T15:25:23;3.83;;;0.90;;
10872;SDS011;34586;53.616;10.032;2022-12-07T15:27:49;2.67;;;0.90;;
10872;SDS011;34586;53.616;10.032;2022-12-07T15:30:14;3.43;;;0.80;;
10872;SDS011;34586;53.616;10.032;2022-12-07T15:32:40;3.73;;;0.87;;
10872;SDS011;34586;53.616;10.032;2022-12-07T15:35:06;4.13;;;0.80;;
10872;SDS011;34586;53.616;10.032;2022-12-07T15:37:32;0.90;;;0.50;;
10872;SDS011;34586;53.616;10.032;2022-12-07T15:39:58;2.73;;;0.60;;
10872;SDS011;34586;53.616;10.032;2022-12-07T15:42:24;1.90;;;0.73;;
10872;SDS011;34586;53.616;10.032;2022-12-07T15:44:49;1.83;;;0.77;;
10872;SDS011;34586;53.616;10.032;2022-12-07T15:47:31;3.10;;;0.70;;
10872;SDS011;34586;53.616;10.032;2022-12-07T15:50:05;4.20;;;0.80;;
10872;SDS011;34586;53.616;10.032;2022-12-07T15:52:33;5.00;;;0.70;;
10872;SDS011;34586;53.616;10.032;2022-12-07T15:54:58;4.50;;;0.70;;
10872;SDS011;34586;53.616;10.032;2022-12-07T15:57:30;7.87;;;1.30;;
10872;SDS011;34586;53.616;10.032;2022-12-07T15:59:56;6.90;;;0.90;;
10872;SDS011;34586;53.616;10.032;2022-12-07T16:02:23;1.90;;;0.60;;
10872;SDS011;34586;53.616;10.032;2022-12-07T16:04:50;4.33;;;0.83;;
10872;SDS011;34586;53.616;10.032;2022-12-07T16:07:16;3.13;;;1.00;;
10872;SDS011;34586;53.616;10.032;2022-12-07T16:09:43;2.57;;;1.00;;
10872;SDS011;34586;53.616;10.032;2022-12-07T16:12:10;1.57;;;0.60;;
10872;SDS011;34586;53.616;10.032;2022-12-07T16:14:39;2.63;;;1.00;;
10872;SDS011;34586;53.616;10.032;2022-12-07T16:17:05;3.17;;;0.83;;
10872;SDS011;34586;53.616;10.032;2022-12-07T16:19:31;1.67;;;1.03;;
10872;SDS011;34586;53.616;10.032;2022-12-07T16:21:57;3.90;;;1.03;;
10872;SDS011;34586;53.616;10.032;2022-12-07T16:24:24;4.30;;;1.00;;
10872;SDS011;34586;53.616;10.032;2022-12-07T16:26:49;2.07;;;0.90;;
10872;SDS011;34586;53.616;10.032;2022-12-07T16:29:15;5.03;;;1.20;;
10872;SDS011;34586;53.616;10.032;2022-12-07T16:31:43;3.73;;;0.83;;
10872;SDS011;34586;53.616;10.032;2022-12-07T16:34:08;2.33;;;1.10;;
10872;SDS011;34586;53.616;10.032;2022-12-07T16:36:34;3.80;;;0.83;;
10872;SDS011;34586;53.616;10.032;2022-12-07T16:39:00;5.10;;;1.10;;
10872;SDS011;34586;53.616;10.032;2022-12-07T16:41:26;4.90;;;1.10;;
10872;SDS011;34586;53.616;10.032;2022-12-07T16:43:52;4.57;;;1.40;;
10872;SDS011;34586;53.616;10.032;2022-12-07T16:46:18;6.77;;;1.53;;
10872;SDS011;34586;53.616;10.032;2022-12-07T16:48:44;5.67;;;1.17;;
10872;SDS011;34586;53.616;10.032;2022-12-07T16:51:10;4.03;;;1.90;;
10872;SDS011;34586;53.616;10.032;2022-12-07T16:53:37;4.60;;;1.00;;
10872;SDS011;34586;53.616;10.032;2022-12-07T16:56:08;2.83;;;1.13;;
10872;SDS011;34586;53.616;10.032;2022-12-07T16:58:39;4.07;;;1.10;;